createdAt,value
2019-02-23T00:02:49.973Z,2.23
2019-02-23T00:06:03.406Z,2.33
2019-02-23T00:09:16.865Z,2.41
2019-02-23T00:12:30.334Z,2.40
2019-02-23T00:15:43.773Z,2.33
2019-02-23T00:18:57.256Z,2.33
2019-02-23T00:22:11.005Z,2.32
2019-02-23T00:25:24.546Z,2.30
2019-02-23T00:28:38.332Z,2.37
2019-02-23T00:31:51.791Z,2.49
2019-02-23T00:35:05.548Z,2.44
2019-02-23T00:38:19.037Z,2.44
2019-02-23T00:41:32.502Z,2.46
2019-02-23T00:44:45.948Z,2.50
2019-02-23T00:47:59.408Z,2.55
2019-02-23T00:51:13.120Z,2.55
2019-02-23T00:54:26.583Z,2.53
2019-02-23T00:57:40.174Z,2.46
2019-02-23T01:00:54.053Z,2.44
2019-02-23T01:04:07.633Z,2.34
2019-02-23T01:07:21.355Z,2.37
2019-02-23T01:10:34.953Z,2.35
2019-02-23T01:13:48.814Z,2.39
2019-02-23T01:17:02.660Z,2.37
2019-02-23T01:20:16.759Z,2.34
2019-02-23T01:23:30.536Z,2.29
2019-02-23T01:26:44.020Z,2.29
2019-02-23T01:29:57.599Z,2.16
2019-02-23T01:33:11.196Z,2.11
2019-02-23T01:36:24.927Z,1.94
2019-02-23T01:39:38.513Z,1.96
2019-02-23T01:42:52.258Z,1.99
2019-02-23T01:46:06.178Z,2.05
2019-02-23T01:49:20.202Z,2.09
2019-02-23T01:52:33.787Z,2.13
2019-02-23T01:55:47.360Z,2.15
2019-02-23T01:59:00.944Z,2.15
2019-02-23T02:02:14.514Z,2.12
2019-02-23T02:05:28.271Z,2.15
2019-02-23T02:08:41.747Z,2.16
2019-02-23T02:11:56.008Z,2.16
2019-02-23T02:15:11.472Z,2.12
2019-02-23T02:18:24.946Z,2.11
2019-02-23T02:21:38.644Z,1.98
2019-02-23T02:24:52.137Z,1.95
2019-02-23T02:28:05.618Z,1.83
2019-02-23T02:31:19.180Z,1.81
2019-02-23T02:34:32.662Z,1.83
2019-02-23T02:37:46.256Z,1.85
2019-02-23T02:45:28.345Z,1.95
2019-02-23T02:48:41.771Z,1.88
2019-02-23T02:51:55.224Z,2.00
2019-02-23T02:55:09.117Z,2.05
2019-02-23T02:58:22.563Z,2.22
2019-02-23T03:01:36.022Z,2.39
2019-02-23T03:04:49.753Z,2.39
2019-02-23T03:08:03.189Z,2.52
2019-02-23T03:11:16.643Z,2.55
2019-02-23T03:14:30.077Z,2.62
2019-02-23T03:17:43.798Z,2.76
2019-02-23T03:20:57.242Z,2.81
2019-02-23T03:24:10.675Z,2.98
2019-02-23T03:27:24.137Z,3.09
2019-02-23T03:30:37.588Z,3.19
2019-02-23T03:33:51.038Z,3.28
2019-02-23T03:37:04.510Z,3.20
2019-02-23T03:40:17.938Z,3.29
2019-02-23T03:43:31.393Z,3.36
2019-02-23T03:46:44.856Z,3.34
2019-02-23T03:49:58.598Z,3.41
2019-02-23T03:53:12.050Z,3.51
2019-02-23T03:56:25.705Z,3.51
2019-02-23T03:59:39.141Z,3.56
2019-02-23T04:02:52.599Z,3.63
2019-02-23T04:06:06.359Z,3.70
2019-02-23T04:09:19.873Z,3.69
2019-02-23T04:12:33.589Z,3.67
2019-02-23T04:15:47.025Z,3.67
2019-02-23T04:19:00.578Z,3.63
2019-02-23T04:22:14.028Z,3.67
2019-02-23T04:25:27.740Z,3.55
2019-02-23T04:28:41.295Z,3.55
2019-02-23T04:31:54.754Z,3.68
2019-02-23T04:35:08.305Z,3.68
2019-02-23T04:38:21.763Z,3.46
2019-02-23T04:41:35.208Z,3.38
2019-02-23T04:44:48.904Z,3.43
2019-02-23T04:48:03.784Z,3.48
2019-02-23T04:51:17.563Z,3.57
2019-02-23T04:54:36.781Z,3.66
2019-02-23T04:57:50.238Z,3.67
2019-02-23T05:01:03.816Z,3.69
2019-02-23T05:04:17.354Z,3.71
2019-02-23T05:07:30.821Z,3.70
2019-02-23T05:10:44.264Z,3.63
2019-02-23T05:13:57.744Z,3.55
2019-02-23T05:17:11.488Z,3.53
2019-02-23T05:20:25.033Z,3.45
2019-02-23T05:23:38.494Z,3.42
2019-02-23T05:26:51.953Z,3.36
2019-02-23T05:30:07.110Z,3.22
2019-02-23T05:33:20.520Z,3.18
2019-02-23T05:36:33.963Z,3.08
2019-02-23T05:39:47.519Z,2.93
2019-02-23T05:43:01.523Z,2.85
2019-02-23T05:46:14.998Z,2.69
2019-02-23T05:49:28.452Z,2.48
2019-02-23T05:52:42.163Z,2.27
2019-02-23T05:55:55.869Z,2.20
2019-02-23T05:59:09.315Z,2.11
2019-02-23T06:02:23.414Z,1.94
2019-02-23T06:05:37.425Z,1.82
2019-02-23T06:08:50.862Z,1.78
2019-02-23T06:12:04.555Z,1.76
2019-02-23T06:15:17.995Z,1.67
2019-02-23T06:18:31.431Z,1.57
2019-02-23T06:21:53.466Z,1.54
2019-02-23T06:25:00.325Z,1.52
2019-02-23T06:28:14.155Z,1.48
2019-02-23T06:31:27.602Z,1.42
2019-02-23T06:34:41.387Z,1.32
2019-02-23T06:37:54.856Z,1.29
2019-02-23T06:41:08.291Z,1.19
2019-02-23T06:44:21.739Z,1.12
2019-02-23T06:47:35.181Z,1.14
2019-02-23T06:50:48.628Z,1.11
2019-02-23T06:54:02.082Z,1.03
2019-02-23T06:57:15.525Z,1.03
2019-02-23T07:00:29.366Z,1.11
2019-02-23T07:03:42.929Z,1.12
2019-02-23T07:06:56.382Z,1.17
2019-02-23T07:10:10.460Z,1.21
2019-02-23T07:13:24.199Z,1.21
2019-02-23T07:16:37.654Z,1.30
2019-02-23T07:19:51.090Z,1.37
2019-02-23T07:23:04.544Z,1.39
2019-02-23T07:26:18.281Z,1.37
2019-02-23T07:29:32.103Z,1.45
2019-02-23T07:32:45.916Z,1.54
2019-02-23T07:35:59.784Z,1.59
2019-02-23T07:39:13.190Z,1.68
2019-02-23T07:42:26.647Z,1.73
2019-02-23T07:45:40.118Z,1.68
2019-02-23T07:48:53.921Z,1.75
2019-02-23T07:52:07.719Z,1.86
2019-02-23T07:55:21.187Z,1.99
2019-02-23T07:58:34.631Z,2.03
2019-02-23T08:01:48.328Z,2.13
2019-02-23T08:05:01.920Z,2.25
2019-02-23T08:08:15.668Z,2.43
2019-02-23T08:11:29.158Z,2.54
2019-02-23T08:14:42.891Z,2.68
2019-02-23T08:17:56.447Z,2.79
2019-02-23T08:21:09.899Z,2.94
2019-02-23T08:24:23.751Z,2.96
2019-02-23T08:27:37.586Z,3.18
2019-02-23T08:30:51.040Z,3.33
2019-02-23T08:34:04.879Z,3.48
2019-02-23T08:37:18.895Z,3.49
2019-02-23T08:40:32.566Z,3.50
2019-02-23T08:43:46.332Z,3.49
2019-02-23T08:46:59.784Z,3.62
2019-02-23T08:50:13.384Z,3.66
2019-02-23T08:53:27.025Z,3.86
2019-02-23T08:56:40.510Z,3.97
2019-02-23T08:59:53.967Z,4.16
2019-02-23T09:03:07.690Z,4.42
2019-02-23T09:06:21.177Z,4.60
2019-02-23T09:09:34.877Z,4.62
2019-02-23T09:12:48.319Z,4.77
2019-02-23T09:16:01.852Z,5.03
2019-02-23T09:19:15.221Z,5.01
2019-02-23T09:22:28.791Z,4.94
2019-02-23T09:25:42.360Z,5.07
2019-02-23T09:28:55.799Z,5.13
2019-02-23T09:32:09.253Z,5.26
2019-02-23T09:35:22.727Z,5.26
2019-02-23T09:38:36.415Z,5.24
2019-02-23T09:41:49.877Z,5.32
2019-02-23T09:45:03.698Z,5.49
2019-02-23T09:48:17.261Z,5.68
2019-02-23T09:51:30.725Z,5.87
2019-02-23T09:54:44.179Z,6.04
2019-02-23T09:57:57.891Z,6.24
2019-02-23T10:01:11.348Z,6.39
2019-02-23T10:04:24.795Z,6.67
2019-02-23T10:07:38.281Z,6.82
2019-02-23T10:10:52.119Z,6.79
2019-02-23T10:14:07.447Z,6.97
2019-02-23T10:17:21.311Z,7.21
2019-02-23T10:20:35.080Z,7.52
2019-02-23T10:23:48.843Z,7.95
2019-02-23T10:27:02.297Z,8.04
2019-02-23T10:30:16.284Z,7.95
2019-02-23T10:33:29.722Z,7.94
2019-02-23T10:36:43.184Z,7.65
2019-02-23T10:39:56.911Z,7.75
2019-02-23T10:43:10.683Z,7.86
2019-02-23T10:46:24.118Z,7.88
2019-02-23T10:49:37.690Z,8.20
2019-02-23T10:52:51.135Z,8.42
2019-02-23T10:56:04.951Z,8.26
2019-02-23T10:59:18.695Z,8.38
2019-02-23T11:02:32.623Z,8.55
2019-02-23T11:05:46.434Z,8.72
2019-02-23T11:09:00.051Z,8.72
2019-02-23T11:12:13.727Z,8.81
2019-02-23T11:15:27.398Z,8.54
2019-02-23T11:18:40.898Z,8.71
2019-02-23T11:21:55.020Z,9.14
2019-02-23T11:25:10.598Z,9.29
2019-02-23T11:28:24.089Z,9.28
2019-02-23T11:31:37.528Z,9.87
2019-02-23T11:34:50.971Z,10.20
2019-02-23T11:38:04.677Z,10.52
2019-02-23T11:41:18.171Z,10.56
2019-02-23T11:44:31.660Z,10.80
2019-02-23T11:47:45.134Z,10.76
2019-02-23T11:50:59.187Z,11.07
2019-02-23T11:54:12.740Z,11.01
2019-02-23T11:57:29.870Z,10.79
2019-02-23T12:00:44.965Z,10.50
2019-02-23T12:03:58.875Z,10.84
2019-02-23T12:07:12.489Z,11.68
2019-02-23T12:10:25.988Z,12.33
2019-02-23T12:13:39.456Z,12.56
2019-02-23T12:16:53.081Z,12.59
2019-02-23T12:20:06.701Z,13.13
2019-02-23T12:23:20.412Z,13.17
2019-02-23T12:26:34.028Z,13.01
2019-02-23T12:29:47.751Z,12.70
2019-02-23T12:33:01.300Z,12.61
2019-02-23T12:36:14.815Z,12.58
2019-02-23T12:39:28.448Z,12.53
2019-02-23T12:42:42.041Z,12.65
2019-02-23T12:45:55.819Z,12.82
2019-02-23T12:49:09.403Z,12.67
2019-02-23T12:52:22.899Z,12.99
2019-02-23T12:55:36.765Z,12.86
2019-02-23T12:58:50.220Z,12.89
2019-02-23T13:02:04.211Z,12.51
2019-02-23T13:05:19.444Z,12.30
2019-02-23T13:09:30.382Z,11.87
2019-02-23T13:13:27.522Z,12.09
2019-02-23T13:17:13.375Z,12.28
2019-02-23T13:21:12.977Z,11.91
2019-02-23T13:24:39.310Z,11.65
2019-02-23T13:28:33.978Z,11.29
2019-02-23T13:32:28.222Z,11.40
2019-02-23T13:36:42.938Z,11.59
2019-02-23T13:40:15.002Z,11.48
2019-02-23T13:44:05.814Z,11.36
2019-02-23T13:47:47.313Z,11.28
2019-02-23T13:51:37.091Z,10.98
2019-02-23T13:55:31.803Z,10.93
2019-02-23T13:59:02.410Z,11.11
2019-02-23T14:02:38.197Z,11.28
2019-02-23T14:06:40.568Z,11.23
2019-02-23T14:10:52.786Z,11.29
2019-02-23T14:14:39.024Z,11.24
2019-02-23T14:18:26.512Z,11.37
2019-02-23T14:22:31.568Z,11.53
2019-02-23T14:26:35.396Z,11.13
2019-02-23T14:30:19.528Z,10.82
2019-02-23T14:33:53.918Z,11.10
2019-02-23T14:37:50.474Z,11.12
2019-02-23T14:41:36.364Z,11.15
2019-02-23T14:45:14.461Z,10.84
2019-02-23T14:48:58.298Z,10.70
2019-02-23T14:52:37.392Z,10.78
2019-02-23T14:56:38.494Z,10.74
2019-02-23T15:00:26.921Z,10.86
2019-02-23T15:03:59.984Z,10.71
2019-02-23T15:07:49.402Z,10.65
2019-02-23T15:11:51.963Z,10.41
2019-02-23T15:15:51.333Z,10.24
2019-02-23T15:19:38.488Z,10.14
2019-02-23T15:23:35.813Z,10.16
2019-02-23T15:27:18.695Z,10.06
2019-02-23T15:31:11.864Z,9.94
2019-02-23T15:34:52.940Z,9.89
2019-02-23T15:38:29.454Z,9.92
2019-02-23T15:42:16.059Z,9.90
2019-02-23T15:46:01.173Z,9.60
2019-02-23T15:49:34.299Z,9.38
2019-02-23T15:52:47.959Z,9.27
2019-02-23T15:56:01.423Z,9.22
2019-02-23T15:59:14.983Z,9.23
2019-02-23T16:02:28.522Z,9.28
2019-02-23T16:05:43.802Z,9.34
2019-02-23T16:08:58.539Z,9.14
2019-02-23T16:12:13.662Z,8.80
2019-02-23T16:15:27.224Z,8.75
2019-02-23T16:18:41.387Z,8.76
2019-02-23T16:21:54.975Z,8.68
2019-02-23T16:25:08.636Z,8.58
2019-02-23T16:28:22.502Z,8.39
2019-02-23T16:31:35.952Z,8.34
2019-02-23T16:34:49.475Z,8.17
2019-02-23T16:38:03.246Z,8.01
2019-02-23T16:41:16.696Z,8.03
2019-02-23T16:44:30.204Z,7.85
2019-02-23T16:47:44.296Z,7.74
2019-02-23T16:50:57.753Z,7.67
2019-02-23T16:54:11.221Z,7.49
2019-02-23T16:57:24.687Z,7.35
2019-02-23T17:00:38.159Z,7.18
2019-02-23T17:03:51.621Z,7.02
2019-02-23T17:07:05.165Z,6.94
2019-02-23T17:10:18.778Z,6.78
2019-02-23T17:13:32.226Z,6.68
2019-02-23T17:16:46.166Z,6.48
2019-02-23T17:19:59.813Z,6.39
2019-02-23T17:23:13.258Z,6.26
2019-02-23T17:26:27.453Z,6.07
2019-02-23T17:29:40.909Z,5.91
2019-02-23T17:32:54.697Z,5.82
2019-02-23T17:36:08.153Z,5.66
2019-02-23T17:39:21.594Z,5.35
2019-02-23T17:42:35.372Z,5.08
2019-02-23T17:45:48.837Z,5.02
2019-02-23T17:49:02.384Z,4.85
2019-02-23T17:52:16.227Z,4.72
2019-02-23T17:55:29.670Z,4.46
2019-02-23T17:58:43.240Z,4.37
2019-02-23T18:01:56.987Z,4.35
2019-02-23T18:05:10.542Z,4.17
2019-02-23T18:08:24.420Z,4.02
2019-02-23T18:11:37.871Z,3.90
2019-02-23T18:14:51.339Z,3.87
2019-02-23T18:18:05.059Z,3.79
2019-02-23T18:21:19.252Z,3.63
2019-02-23T18:24:32.808Z,3.54
2019-02-23T18:27:46.338Z,3.50
2019-02-23T18:30:59.781Z,3.40
2019-02-23T18:34:14.137Z,3.32
2019-02-23T18:37:27.608Z,3.31
2019-02-23T18:40:41.068Z,3.19
2019-02-23T18:43:54.511Z,3.13
2019-02-23T18:47:08.258Z,3.02
2019-02-23T18:50:22.052Z,2.93
2019-02-23T18:53:35.614Z,2.94
2019-02-23T18:57:08.754Z,2.85
2019-02-23T19:00:24.568Z,2.80
2019-02-23T19:03:38.155Z,2.75
2019-02-23T19:06:52.226Z,2.68
2019-02-23T19:10:07.831Z,2.64
2019-02-23T19:13:21.288Z,2.63
2019-02-23T19:16:34.733Z,2.60
2019-02-23T19:19:48.284Z,2.53
2019-02-23T19:23:03.315Z,2.45
2019-02-23T19:29:31.969Z,2.38
2019-02-23T19:32:45.771Z,2.30
2019-02-23T19:35:59.259Z,2.10
2019-02-23T19:39:12.808Z,2.04
2019-02-23T19:42:26.256Z,1.99
2019-02-23T19:45:39.753Z,1.97
2019-02-23T19:48:53.259Z,1.96
2019-02-23T19:52:06.961Z,1.85
2019-02-23T19:55:20.469Z,1.84
2019-02-23T19:58:34.244Z,1.84
2019-02-23T20:01:47.787Z,1.80
2019-02-23T20:05:01.274Z,1.75
2019-02-23T20:08:15.355Z,1.65
2019-02-23T20:11:29.043Z,1.59
2019-02-23T20:14:42.665Z,1.50
2019-02-23T20:17:56.618Z,1.38
2019-02-23T20:21:10.109Z,1.33
2019-02-23T20:24:24.407Z,1.28
2019-02-23T20:27:38.042Z,1.24
2019-02-23T20:30:51.674Z,1.22
2019-02-23T20:34:05.471Z,1.18
2019-02-23T20:37:18.911Z,1.14
2019-02-23T20:40:32.657Z,1.10
2019-02-23T20:43:46.357Z,1.09
2019-02-23T20:46:59.803Z,1.08
2019-02-23T20:50:13.291Z,1.04
2019-02-23T20:53:26.743Z,0.98
2019-02-23T20:56:40.462Z,0.94
2019-02-23T20:59:54.000Z,0.87
2019-02-23T21:03:07.803Z,0.74
2019-02-23T21:06:22.190Z,0.74
2019-02-23T21:09:35.742Z,0.76
2019-02-23T21:12:49.219Z,0.71
2019-02-23T21:16:02.767Z,0.67
2019-02-23T21:19:16.341Z,0.57
2019-02-23T21:22:30.134Z,0.48
2019-02-23T21:25:43.612Z,0.46
2019-02-23T21:33:12.624Z,0.50
2019-02-23T21:36:29.205Z,0.44
2019-02-23T21:39:42.849Z,0.44
2019-02-23T21:43:16.282Z,0.39
2019-02-23T21:46:29.798Z,0.25
2019-02-23T21:49:43.267Z,0.24
2019-02-23T21:52:56.738Z,0.21
2019-02-23T21:56:11.092Z,0.16
2019-02-23T21:59:24.565Z,0.16
2019-02-23T22:02:38.178Z,0.12
2019-02-23T22:05:51.731Z,0.09
2019-02-23T22:09:05.659Z,0.10
2019-02-23T22:12:19.371Z,0.08
2019-02-23T22:15:33.000Z,0.05
2019-02-23T22:18:46.556Z,-0.05
2019-02-23T22:22:00.315Z,-0.08
2019-02-23T22:25:13.886Z,-0.10
2019-02-23T22:28:27.644Z,-0.10
2019-02-23T22:31:41.270Z,-0.11
2019-02-23T22:34:54.918Z,-0.13
2019-02-23T22:38:09.067Z,-0.14
2019-02-23T22:41:22.798Z,-0.10
2019-02-23T22:44:36.573Z,-0.11
2019-02-23T22:47:50.172Z,-0.13
2019-02-23T22:51:03.768Z,-0.15
2019-02-23T22:54:17.239Z,-0.17
2019-02-23T23:01:46.972Z,-0.49
2019-02-23T23:05:01.120Z,-0.60
2019-02-23T23:08:15.063Z,-0.60
2019-02-23T23:11:28.512Z,-0.55
2019-02-23T23:14:42.593Z,-0.49
2019-02-23T23:17:56.067Z,-0.45
2019-02-23T23:21:11.497Z,-0.50
2019-02-23T23:24:25.119Z,-0.49
2019-02-23T23:27:38.588Z,-0.50
2019-02-23T23:30:52.286Z,-0.60
2019-02-23T23:34:05.971Z,-0.73
2019-02-23T23:37:19.658Z,-0.81
2019-02-23T23:40:33.247Z,-0.72
2019-02-23T23:43:46.814Z,-0.81
2019-02-23T23:47:00.314Z,-0.96
2019-02-23T23:50:13.741Z,-0.91
2019-02-23T23:53:27.327Z,-0.87
2019-02-23T23:56:40.923Z,-1.02
2019-02-23T23:59:54.602Z,-1.07
